Time,TemperatureF,DewpointF,PressureIn,WindDirection,WindDirectionDegrees,WindSpeedMPH,WindSpeedGustMPH,Humidity,HourlyPrecipIn,Conditions,Clouds,dailyrainin,SoftwareType,DateUTC
2013-02-20 00:02:00,15.1,-2.9,29.58,SW,226,0.0,0.0,44,0.00,,---,0.00,VWS V14.01,2013-02-20 07:02:00,
2013-02-20 00:08:00,14.9,-3.1,29.58,SW,226,0.0,0.0,44,0.00,,---,0.00,VWS V14.01,2013-02-20 07:08:00,
2013-02-20 00:14:00,14.7,-3.2,29.58,SW,226,0.0,0.0,44,0.00,,---,0.00,VWS V14.01,2013-02-20 07:14:00,
2013-02-20 00:20:00,14.4,-3.6,29.58,SW,226,0.0,0.0,44,0.00,,---,0.00,VWS V14.01,2013-02-20 07:20:00,
2013-02-20 00:26:00,14.4,-3.6,29.58,SW,226,0.0,0.0,44,0.00,,---,0.00,VWS V14.01,2013-02-20 07:26:00,
2013-02-20 00:32:00,14.5,-3.4,29.58,SW,226,0.0,0.0,44,0.00,,---,0.00,VWS V14.01,2013-02-20 07:32:00,
2013-02-20 00:37:00,14.5,-2.9,29.58,SW,226,0.0,0.0,45,0.00,,---,0.00,VWS V14.01,2013-02-20 07:37:00,
2013-02-20 00:43:00,14.5,-2.9,29.58,SW,226,0.0,0.0,45,0.00,,---,0.00,VWS V14.01,2013-02-20 07:43:00,
2013-02-20 00:50:00,14.4,-3.1,29.58,SE,136,0.0,0.0,45,0.00,,---,0.00,VWS V14.01,2013-02-20 07:50:00,
2013-02-20 00:56:00,14.2,-3.2,29.58,SE,128,0.0,0.0,45,0.00,,---,0.00,VWS V14.01,2013-02-20 07:56:00,
2013-02-20 01:01:00,13.6,-4.2,29.58,SSW,194,0.0,0.0,44,0.00,,---,0.00,VWS V14.01,2013-02-20 08:01:00,
2013-02-20 01:07:00,13.6,-4.2,29.55,SSW,194,0.0,0.0,44,0.00,,---,0.00,VWS V14.01,2013-02-20 08:07:00,
2013-02-20 01:12:00,13.5,-4.4,29.55,SSW,194,0.0,0.0,44,0.00,,---,0.00,VWS V14.01,2013-02-20 08:12:00,
2013-02-20 01:18:00,13.5,-4.4,29.55,SSW,194,0.0,0.0,44,0.00,,---,0.00,VWS V14.01,2013-02-20 08:18:00,
2013-02-20 01:24:00,13.5,-4.4,29.55,SSW,194,0.0,0.0,44,0.00,,---,0.00,VWS V14.01,2013-02-20 08:24:00,
2013-02-20 01:29:00,13.5,-4.4,29.55,South,179,0.0,0.0,44,0.00,,---,0.00,VWS V14.01,2013-02-20 08:29:00,
2013-02-20 01:35:00,13.5,-4.4,29.55,SE,143,0.0,0.0,44,0.00,,---,0.00,VWS V14.01,2013-02-20 08:35:00,
2013-02-20 01:40:00,13.3,-4.6,29.55,SE,143,0.0,0.0,44,0.00,,---,0.00,VWS V14.01,2013-02-20 08:40:00,
2013-02-20 01:45:00,13.5,-4.4,29.55,SE,145,0.0,0.0,44,0.00,,---,0.00,VWS V14.01,2013-02-20 08:45:00,
2013-02-20 01:50:00,13.5,-4.4,29.55,SE,145,0.0,0.0,44,0.00,,---,0.00,VWS V14.01,2013-02-20 08:50:00,
2013-02-20 01:55:00,13.5,-4.4,29.55,SSE,156,0.0,0.0,44,0.00,,---,0.00,VWS V14.01,2013-02-20 08:55:00,
2013-02-20 02:01:00,13.6,-4.2,29.55,SSE,156,0.0,0.0,44,0.00,,---,0.00,VWS V14.01,2013-02-20 09:01:00,
2013-02-20 02:07:00,13.6,-4.2,29.55,SSE,156,0.0,0.0,44,0.00,,---,0.00,VWS V14.01,2013-02-20 09:07:00,
2013-02-20 02:12:00,13.6,-4.2,29.55,SSE,156,0.0,0.0,44,0.00,,---,0.00,VWS V14.01,2013-02-20 09:12:00,
2013-02-20 02:18:00,13.8,-4.1,29.55,SSE,156,0.0,0.0,44,0.00,,---,0.00,VWS V14.01,2013-02-20 09:18:00,
2013-02-20 10:31:00,21.6,9.8,29.46,WSW,248,0.0,0.0,60,0.00,,---,0.00,VWS V14.01,2013-02-20 17:31:00,
2013-02-20 10:37:00,21.9,10.6,29.46,West,261,0.0,0.0,61,0.00,,---,0.00,VWS V14.01,2013-02-20 17:37:00,
2013-02-20 10:43:00,22.1,10.7,29.46,West,272,0.0,0.0,61,0.00,,---,0.00,VWS V14.01,2013-02-20 17:43:00,
2013-02-20 10:48:00,22.1,10.7,29.46,West,272,0.0,0.0,61,0.00,,---,0.00,VWS V14.01,2013-02-20 17:48:00,
2013-02-20 10:54:00,22.3,10.9,29.46,West,272,0.0,0.0,61,0.00,,---,0.00,VWS V14.01,2013-02-20 17:54:00,
2013-02-20 10:59:00,22.1,10.4,29.46,West,272,0.0,0.0,60,0.00,,---,0.00,VWS V14.01,2013-02-20 17:59:00,
2013-02-20 11:04:00,22.1,10.4,29.43,West,272,0.0,0.0,60,0.00,,---,0.00,VWS V14.01,2013-02-20 18:04:00,
2013-02-20 11:09:00,22.1,10.7,29.43,West,272,0.0,0.0,61,0.00,,---,0.00,VWS V14.01,2013-02-20 18:09:00,
2013-02-20 11:15:00,22.3,10.9,29.43,West,272,0.0,0.0,61,0.00,,---,0.00,VWS V14.01,2013-02-20 18:15:00,
2013-02-20 11:20:00,22.3,11.2,29.43,WNW,288,0.0,0.0,62,0.00,,---,0.00,VWS V14.01,2013-02-20 18:20:00,
2013-02-20 11:26:00,22.5,11.4,29.43,WNW,303,0.0,0.0,62,0.00,,---,0.00,VWS V14.01,2013-02-20 18:26:00,
2013-02-20 11:33:00,22.6,12.0,29.43,NW,307,0.0,0.0,63,0.00,,---,0.00,VWS V14.01,2013-02-20 18:33:00,
2013-02-20 11:38:00,22.8,12.1,29.43,NW,322,0.0,0.0,63,0.00,,---,0.00,VWS V14.01,2013-02-20 18:38:00,
2013-02-20 11:44:00,22.8,12.1,29.43,NW,306,0.0,0.0,63,0.00,,---,0.00,VWS V14.01,2013-02-20 18:44:00,
2013-02-20 14:01:00,24.8,14.4,29.40,NNW,328,0.0,0.0,64,0.00,,---,0.00,VWS V14.01,2013-02-20 21:01:00,
2013-02-20 14:06:00,24.8,14.4,29.40,NW,321,0.0,0.0,64,0.00,,---,0.00,VWS V14.01,2013-02-20 21:06:00,
2013-02-20 14:12:00,24.8,14.4,29.40,WNW,294,0.0,0.0,64,0.00,,---,0.00,VWS V14.01,2013-02-20 21:12:00,
2013-02-20 14:18:00,24.6,13.8,29.40,WNW,294,0.0,0.0,63,0.00,,---,0.00,VWS V14.01,2013-02-20 21:18:00,
2013-02-20 14:23:00,24.6,14.2,29.40,WNW,303,0.0,0.0,64,0.00,,---,0.00,VWS V14.01,2013-02-20 21:23:00,
2013-02-20 14:29:00,24.8,14.4,29.40,WNW,303,0.0,0.0,64,0.00,,---,0.00,VWS V14.01,2013-02-20 21:29:00,
2013-02-20 14:35:00,24.8,14.4,29.40,WNW,296,0.0,0.0,64,0.00,,---,0.00,VWS V14.01,2013-02-20 21:35:00,
2013-02-20 14:41:00,24.6,14.2,29.40,West,280,0.0,0.0,64,0.00,,---,0.00,VWS V14.01,2013-02-20 21:41:00,
2013-02-20 14:46:00,24.6,14.2,29.40,West,280,0.0,0.0,64,0.00,,---,0.00,VWS V14.01,2013-02-20 21:46:00,
2013-02-20 14:51:00,24.8,14.7,29.40,West,280,0.0,0.0,65,0.00,,---,0.00,VWS V14.01,2013-02-20 21:51:00,
2013-02-20 14:57:00,24.8,14.7,29.40,West,280,0.0,0.0,65,0.00,,---,0.00,VWS V14.01,2013-02-20 21:57:00,
2013-02-20 15:02:00,25.0,14.9,29.40,West,280,0.0,0.0,65,0.00,,---,0.00,VWS V14.01,2013-02-20 22:02:00,
2013-02-20 15:08:00,25.0,14.9,29.40,WNW,292,0.0,0.0,65,0.00,,---,0.00,VWS V14.01,2013-02-20 22:08:00,
2013-02-20 15:13:00,25.0,14.9,29.40,WNW,283,0.0,0.0,65,0.00,,---,0.00,VWS V14.01,2013-02-20 22:13:00,
2013-02-20 15:19:00,25.2,15.4,29.40,WNW,283,0.0,0.0,66,0.00,,---,0.00,VWS V14.01,2013-02-20 22:19:00,
2013-02-20 15:25:00,25.3,15.6,29.40,WNW,283,0.0,0.0,66,0.00,,---,0.00,VWS V14.01,2013-02-20 22:25:00,
2013-02-20 15:30:00,25.3,15.6,29.40,WNW,283,0.0,0.0,66,0.00,,---,0.00,VWS V14.01,2013-02-20 22:30:00,
2013-02-20 15:36:00,25.5,15.8,29.40,WNW,283,0.0,0.0,66,0.00,,---,0.00,VWS V14.01,2013-02-20 22:36:00,
2013-02-20 15:41:00,25.7,15.9,29.40,WNW,283,0.0,0.0,66,0.00,,---,0.00,VWS V14.01,2013-02-20 22:41:00,
2013-02-20 15:47:00,25.7,15.9,29.40,NNW,328,0.0,0.0,66,0.00,,---,0.00,VWS V14.01,2013-02-20 22:47:00,
2013-02-20 15:53:00,25.9,16.1,29.40,NNW,333,0.0,0.0,66,0.00,,---,0.00,VWS V14.01,2013-02-20 22:53:00,
2013-02-20 15:58:00,26.1,16.3,29.40,NNW,335,0.0,0.0,66,0.00,,---,0.00,VWS V14.01,2013-02-20 22:58:00,
2013-02-20 16:04:00,26.1,16.3,29.40,NNW,341,0.0,0.0,66,0.00,,---,0.00,VWS V14.01,2013-02-20 23:04:00,
2013-02-20 16:10:00,26.1,15.9,29.40,NNW,337,0.0,0.0,65,0.00,,---,0.00,VWS V14.01,2013-02-20 23:10:00,
2013-02-20 16:15:00,26.1,15.9,29.40,NNW,337,0.0,0.0,65,0.00,,---,0.00,VWS V14.01,2013-02-20 23:15:00,
2013-02-20 16:21:00,26.2,16.1,29.40,NNW,341,0.0,0.0,65,0.00,,---,0.00,VWS V14.01,2013-02-20 23:21:00,
2013-02-20 16:26:00,26.4,16.3,29.40,NNW,343,0.0,0.0,65,0.00,,---,0.00,VWS V14.01,2013-02-20 23:26:00,
2013-02-20 16:32:00,26.6,16.4,29.40,NNW,343,0.0,0.0,65,0.00,,---,0.00,VWS V14.01,2013-02-20 23:32:00,
2013-02-20 16:38:00,26.8,16.2,29.40,NNW,340,0.0,0.0,64,0.00,,---,0.00,VWS V14.01,2013-02-20 23:38:00,
2013-02-20 16:43:00,26.8,16.2,29.40,NNW,343,0.0,0.0,64,0.00,,---,0.00,VWS V14.01,2013-02-20 23:43:00,
2013-02-20 16:49:00,26.8,16.2,29.40,NNW,342,0.0,0.0,64,0.00,,---,0.00,VWS V14.01,2013-02-20 23:49:00,
2013-02-20 16:56:00,26.8,15.9,29.40,NNW,343,0.0,0.0,63,0.00,,---,0.00,VWS V14.01,2013-02-20 23:56:00,
2013-02-20 17:01:00,26.8,15.9,29.40,NNW,340,0.0,0.0,63,0.00,,---,0.00,VWS V14.01,2013-02-21 00:01:00,
2013-02-20 17:07:00,26.4,15.2,29.40,NNW,333,0.0,0.0,62,0.00,,---,0.00,VWS V14.01,2013-02-21 00:07:00,
2013-02-20 17:12:00,26.2,15.0,29.40,NNW,333,0.0,0.0,62,0.00,,---,0.00,VWS V14.01,2013-02-21 00:12:00,
2013-02-20 17:18:00,26.1,14.8,29.40,NNW,333,0.0,0.0,62,0.00,,---,0.00,VWS V14.01,2013-02-21 00:18:00,
2013-02-20 17:24:00,26.1,14.8,29.40,NNW,333,0.0,0.0,62,0.00,,---,0.00,VWS V14.01,2013-02-21 00:24:00,
2013-02-20 17:29:00,25.7,14.1,29.40,NNW,333,0.0,0.0,61,0.00,,---,0.00,VWS V14.01,2013-02-21 00:29:00,
2013-02-20 17:35:00,25.5,14.0,29.40,North,353,0.0,0.0,61,0.00,,---,0.00,VWS V14.01,2013-02-21 00:35:00,
2013-02-20 17:41:00,25.3,13.8,29.40,NNW,339,0.0,0.0,61,0.00,,---,0.00,VWS V14.01,2013-02-21 00:41:00,
2013-02-20 17:46:00,25.0,13.8,29.40,NNW,339,0.0,0.0,62,0.00,,---,0.00,VWS V14.01,2013-02-21 00:46:00,
2013-02-20 19:08:00,22.1,15.1,29.40,North,8,0.0,0.0,74,0.00,,---,0.00,VWS V14.01,2013-02-21 02:08:00,
2013-02-20 19:13:00,21.9,15.2,29.40,North,8,0.0,0.0,75,0.00,,---,0.00,VWS V14.01,2013-02-21 02:13:00,
2013-02-20 19:19:00,21.7,15.1,29.43,North,8,0.0,0.0,75,0.00,,---,0.00,VWS V14.01,2013-02-21 02:19:00,
2013-02-20 19:24:00,21.6,14.9,29.43,North,2,0.0,0.0,75,0.00,,---,0.00,VWS V14.01,2013-02-21 02:24:00,
2013-02-20 19:30:00,21.4,14.7,29.43,North,7,0.0,0.0,75,0.00,,---,0.00,VWS V14.01,2013-02-21 02:30:00,
2013-02-20 19:35:00,21.2,14.8,29.40,North,7,0.0,0.0,76,0.00,,---,0.00,VWS V14.01,2013-02-21 02:35:00,
2013-02-20 19:41:00,21.0,14.7,29.40,North,7,0.0,0.0,76,0.00,,---,0.00,VWS V14.01,2013-02-21 02:41:00,
2013-02-20 19:47:00,20.8,14.5,29.40,South,181,4.9,5.4,76,0.00,,---,0.00,VWS V14.01,2013-02-21 02:47:00,
2013-02-20 19:52:00,20.5,14.1,29.40,South,176,3.6,5.8,76,0.00,,---,0.00,VWS V14.01,2013-02-21 02:52:00,
2013-02-20 19:58:00,20.3,14.3,29.40,SSW,205,0.0,0.0,77,0.00,,---,0.00,VWS V14.01,2013-02-21 02:58:00,
2013-02-20 20:03:00,20.3,14.3,29.40,SSW,206,0.0,0.0,77,0.00,,---,0.00,VWS V14.01,2013-02-21 03:03:00,
2013-02-20 20:09:00,20.1,14.4,29.43,SSW,192,0.0,0.0,78,0.00,,---,0.00,VWS V14.01,2013-02-21 03:09:00,
2013-02-20 20:14:00,20.1,14.4,29.43,SSW,209,0.0,0.0,78,0.00,,---,0.00,VWS V14.01,2013-02-21 03:14:00,
2013-02-20 20:20:00,19.9,14.2,29.43,SSW,198,3.6,3.6,78,0.00,,---,0.00,VWS V14.01,2013-02-21 03:20:00,
2013-02-20 20:26:00,19.6,13.6,29.43,SSW,207,0.0,0.0,77,0.00,,---,0.00,VWS V14.01,2013-02-21 03:26:00,
2013-02-20 20:31:00,19.4,13.7,29.43,SSW,203,3.6,4.9,78,0.00,,---,0.00,VWS V14.01,2013-02-21 03:31:00,
2013-02-20 20:37:00,19.0,13.3,29.43,SSW,196,5.4,6.3,78,0.00,,---,0.00,VWS V14.01,2013-02-21 03:37:00,
2013-02-20 20:43:00,18.7,13.0,29.43,South,181,3.6,5.8,78,0.00,,---,0.00,VWS V14.01,2013-02-21 03:43:00,
2013-02-20 20:48:00,18.5,12.8,29.43,SSW,204,5.8,5.8,78,0.00,,---,0.00,VWS V14.01,2013-02-21 03:48:00,
2013-02-20 20:54:00,18.3,12.6,29.43,South,187,4.0,4.0,78,0.00,,---,0.00,VWS V14.01,2013-02-21 03:54:00,
2013-02-20 20:59:00,18.1,12.7,29.43,SSW,195,3.1,3.1,79,0.00,,---,0.00,VWS V14.01,2013-02-21 03:59:00,
2013-02-20 21:05:00,18.0,12.6,29.43,SSW,198,3.1,4.9,79,0.00,,---,0.00,VWS V14.01,2013-02-21 04:05:00,
2013-02-20 21:10:00,17.8,12.4,29.43,SW,225,3.6,5.4,79,0.00,,---,0.00,VWS V14.01,2013-02-21 04:10:00,
2013-02-20 21:16:00,17.6,12.2,29.43,South,178,4.9,5.4,79,0.00,,---,0.00,VWS V14.01,2013-02-21 04:16:00,
2013-02-20 21:21:00,17.4,12.0,29.43,SSW,193,5.4,5.8,79,0.00,,---,0.00,VWS V14.01,2013-02-21 04:21:00,
2013-02-20 21:26:00,17.2,11.9,29.43,South,191,3.1,4.0,79,0.00,,---,0.00,VWS V14.01,2013-02-21 04:26:00,
2013-02-20 21:31:00,17.1,11.7,29.43,SW,225,5.8,5.8,79,0.00,,---,0.00,VWS V14.01,2013-02-21 04:31:00,
2013-02-20 21:37:00,16.9,11.8,29.43,SSW,211,3.6,4.9,80,0.00,,---,0.00,VWS V14.01,2013-02-21 04:37:00,
2013-02-20 21:42:00,16.9,11.8,29.43,South,179,6.7,6.7,80,0.00,,---,0.00,VWS V14.01,2013-02-21 04:42:00,
2013-02-20 21:48:00,16.9,11.8,29.43,South,179,3.1,6.3,80,0.00,,---,0.00,VWS V14.01,2013-02-21 04:48:00,
2013-02-20 21:54:00,16.7,11.6,29.43,South,172,0.0,0.0,80,0.00,,---,0.00,VWS V14.01,2013-02-21 04:54:00,
2013-02-20 21:59:00,16.9,11.8,29.43,ESE,115,0.0,0.0,80,0.00,,---,0.00,VWS V14.01,2013-02-21 04:59:00,
2013-02-20 22:00:00,16.9,11.8,29.43,East,100,0.0,0.0,80,0.00,,---,0.00,VWS V14.01,2013-02-21 05:00:00,
2013-02-20 22:01:00,16.9,11.8,29.43,East,100,0.0,0.0,80,0.00,,---,0.00,VWS V14.01,2013-02-21 05:01:00,
2013-02-20 22:03:00,16.9,11.8,29.43,South,191,4.0,5.4,80,0.00,,---,0.00,VWS V14.01,2013-02-21 05:03:00,
2013-02-20 22:06:00,16.9,11.8,29.43,South,185,4.0,4.0,80,0.00,,---,0.00,VWS V14.01,2013-02-21 05:06:00,
2013-02-20 22:12:00,16.9,11.8,29.43,SSW,197,0.0,0.0,80,0.00,,---,0.00,VWS V14.01,2013-02-21 05:12:00,
2013-02-20 22:17:00,16.9,11.8,29.43,South,184,7.2,8.1,80,0.00,,---,0.00,VWS V14.01,2013-02-21 05:17:00,
2013-02-20 22:23:00,16.9,11.8,29.43,SSW,199,3.6,4.9,80,0.00,,---,0.00,VWS V14.01,2013-02-21 05:23:00,
2013-02-20 22:28:00,16.9,11.8,29.43,West,269,2.7,4.0,80,0.00,,---,0.00,VWS V14.01,2013-02-21 05:28:00,
2013-02-20 22:34:00,16.9,11.8,29.43,West,270,0.0,0.0,80,0.00,,---,0.00,VWS V14.01,2013-02-21 05:34:00,
2013-02-20 22:39:00,16.9,11.8,29.43,SW,216,0.0,0.0,80,0.00,,---,0.00,VWS V14.01,2013-02-21 05:39:00,
2013-02-20 22:45:00,16.9,11.8,29.43,SW,216,0.0,0.0,80,0.00,,---,0.00,VWS V14.01,2013-02-21 05:45:00,
2013-02-20 22:51:00,16.9,11.8,29.43,SSW,212,0.0,0.0,80,0.00,,---,0.00,VWS V14.01,2013-02-21 05:51:00,
2013-02-20 22:56:00,16.9,11.8,29.43,SSW,211,0.0,0.0,80,0.00,,---,0.00,VWS V14.01,2013-02-21 05:56:00,
2013-02-20 23:02:00,16.9,11.8,29.43,SSW,211,0.0,0.0,80,0.00,,---,0.00,VWS V14.01,2013-02-21 06:02:00,
2013-02-20 23:08:00,16.9,11.5,29.43,SSW,205,0.0,0.0,79,0.00,,---,0.00,VWS V14.01,2013-02-21 06:08:00,
2013-02-20 23:13:00,16.9,11.5,29.43,South,191,4.0,4.0,79,0.00,,---,0.00,VWS V14.01,2013-02-21 06:13:00,
2013-02-20 23:19:00,16.9,11.5,29.43,South,185,3.1,3.1,79,0.00,,---,0.00,VWS V14.01,2013-02-21 06:19:00,
2013-02-20 23:24:00,16.7,11.3,29.43,South,175,3.6,3.6,79,0.00,,---,0.00,VWS V14.01,2013-02-21 06:24:00,
2013-02-20 23:29:00,16.7,11.3,29.43,SSE,150,0.0,0.0,79,0.00,,---,0.00,VWS V14.01,2013-02-21 06:29:00,
2013-02-20 23:34:00,16.7,11.3,29.43,SSW,205,0.0,0.0,79,0.00,,---,0.00,VWS V14.01,2013-02-21 06:34:00,
2013-02-20 23:39:00,16.7,11.3,29.43,SW,215,0.0,0.0,79,0.00,,---,0.00,VWS V14.01,2013-02-21 06:39:00,
2013-02-20 23:44:00,16.7,11.3,29.43,SW,215,0.0,0.0,79,0.00,,---,0.00,VWS V14.01,2013-02-21 06:44:00,
2013-02-20 23:50:00,16.7,11.3,29.43,SSW,207,0.0,0.0,79,0.00,,---,0.00,VWS V14.01,2013-02-21 06:50:00,
2013-02-20 23:55:00,16.7,11.3,29.43,South,181,0.0,0.0,79,0.00,,---,0.00,VWS V14.01,2013-02-21 06:55:00,